createdAt,value
2023-01-08T00:00:37.190Z,51.4
2023-01-08T00:02:37.251Z,51.6
2023-01-08T00:03:37.358Z,51.7
2023-01-08T00:04:37.168Z,52
2023-01-08T00:05:37.164Z,51.8
2023-01-08T00:06:37.166Z,51.8
2023-01-08T00:07:37.169Z,51.8
2023-01-08T00:08:37.158Z,51.9
2023-01-08T00:09:37.163Z,51.7
2023-01-08T00:10:37.195Z,51.6
2023-01-08T00:11:37.153Z,50.9
2023-01-08T00:12:37.159Z,50.7
2023-01-08T00:13:37.170Z,51.2
2023-01-08T00:14:37.301Z,50.8
2023-01-08T00:15:37.163Z,51
2023-01-08T00:16:37.247Z,51.1
2023-01-08T00:17:37.161Z,50.7
2023-01-08T00:18:37.164Z,50.4
2023-01-08T00:19:37.196Z,50.8
2023-01-08T00:20:37.262Z,50.7
2023-01-08T00:22:37.164Z,50.7
2023-01-08T00:23:37.169Z,50.4
2023-01-08T00:24:37.162Z,50.4
2023-01-08T00:25:37.158Z,50.6
2023-01-08T00:26:37.182Z,50.6
2023-01-08T00:27:37.163Z,50.2
2023-01-08T00:28:37.176Z,50.6
2023-01-08T00:29:37.159Z,50.3
2023-01-08T00:30:37.209Z,50.4
2023-01-08T00:31:37.163Z,50.1
2023-01-08T00:32:37.183Z,50
2023-01-08T00:33:37.231Z,50.2
2023-01-08T00:35:37.165Z,49.7
2023-01-08T00:36:37.165Z,49.9
2023-01-08T00:37:37.159Z,49.9
2023-01-08T00:38:37.162Z,49.6
2023-01-08T00:39:37.176Z,49.8
2023-01-08T00:40:37.172Z,49.9
2023-01-08T00:41:37.166Z,49.4
2023-01-08T00:42:37.163Z,49.4
2023-01-08T00:43:37.169Z,49.3
2023-01-08T00:44:37.159Z,49.9
2023-01-08T00:45:37.248Z,49.8
2023-01-08T00:46:37.172Z,50.2
2023-01-08T00:47:37.172Z,49.9
2023-01-08T00:48:37.174Z,49.8
2023-01-08T00:49:37.163Z,49.8
2023-01-08T00:50:37.169Z,50.3
2023-01-08T00:51:37.163Z,50
2023-01-08T00:52:37.171Z,49.7
2023-01-08T00:53:37.169Z,50
2023-01-08T00:54:37.160Z,50.2
2023-01-08T00:55:37.168Z,50
2023-01-08T00:56:37.176Z,50.5
2023-01-08T00:57:37.215Z,50.1
2023-01-08T00:58:37.181Z,49.7
2023-01-08T00:59:37.164Z,49.9
2023-01-08T01:00:37.172Z,49.9
2023-01-08T01:01:37.362Z,49.6
2023-01-08T01:02:37.180Z,49.4
2023-01-08T01:03:37.167Z,49.8
2023-01-08T01:04:37.280Z,49.3
2023-01-08T01:05:37.161Z,49.5
2023-01-08T01:06:37.171Z,49.8
2023-01-08T01:08:37.181Z,49.3
2023-01-08T01:09:37.179Z,49.6
2023-01-08T01:12:37.180Z,49.8
2023-01-08T01:13:37.175Z,49.9
2023-01-08T01:14:37.165Z,50.6
2023-01-08T01:15:37.183Z,50.9
2023-01-08T01:17:37.181Z,50.1
2023-01-08T01:18:37.179Z,50.3
2023-01-08T01:19:37.244Z,50.3
2023-01-08T01:20:37.169Z,50
2023-01-08T01:22:37.201Z,50.1
2023-01-08T01:23:37.171Z,49.8
2023-01-08T01:24:37.171Z,49.4
2023-01-08T01:25:37.168Z,49.1
2023-01-08T01:26:37.180Z,49.4
2023-01-08T01:27:37.172Z,49.2
2023-01-08T01:28:37.175Z,49.3
2023-01-08T01:30:37.293Z,49.7
2023-01-08T01:31:37.172Z,49.5
2023-01-08T01:32:37.184Z,49.3
2023-01-08T01:33:37.171Z,49.2
2023-01-08T01:34:37.177Z,50
2023-01-08T01:35:37.173Z,49.8
2023-01-08T01:36:37.178Z,49.3
2023-01-08T01:37:37.175Z,49.2
2023-01-08T01:38:37.179Z,49.2
2023-01-08T01:39:37.170Z,49.6
2023-01-08T01:40:37.171Z,49.7
2023-01-08T01:41:37.184Z,49.4
2023-01-08T01:42:37.170Z,49.8
2023-01-08T01:43:37.173Z,50.3
2023-01-08T01:44:37.181Z,50.5
2023-01-08T01:45:37.255Z,50.2
2023-01-08T01:46:37.174Z,49.8
2023-01-08T01:47:37.326Z,50.2
2023-01-08T01:48:37.180Z,50.2
2023-01-08T01:49:37.182Z,49.8
2023-01-08T01:50:37.169Z,49.7
2023-01-08T01:51:37.175Z,49.6
2023-01-08T01:52:37.178Z,49.6
2023-01-08T01:53:37.171Z,49.7
2023-01-08T01:55:37.177Z,50.4
2023-01-08T01:56:37.235Z,50.2
2023-01-08T01:57:37.182Z,50.3
2023-01-08T01:58:37.182Z,50.1
2023-01-08T01:59:37.191Z,50.3
2023-01-08T02:00:37.182Z,50.3
2023-01-08T02:01:37.298Z,50.8
2023-01-08T02:02:37.179Z,50.1
2023-01-08T02:03:37.353Z,50
2023-01-08T02:04:37.193Z,50.1
2023-01-08T02:05:37.183Z,50.4
2023-01-08T02:06:37.179Z,51
2023-01-08T02:07:37.191Z,51.2
2023-01-08T02:08:37.183Z,51.3
2023-01-08T02:09:37.560Z,51
2023-01-08T02:10:37.181Z,50.8
2023-01-08T02:11:37.177Z,50.8
2023-01-08T02:12:37.183Z,50.7
2023-01-08T02:13:37.177Z,50.9
2023-01-08T02:14:37.177Z,50.8
2023-01-08T02:15:37.185Z,51
2023-01-08T02:16:37.215Z,50.6
2023-01-08T02:17:37.179Z,50.4
2023-01-08T02:18:37.317Z,50.6
2023-01-08T02:19:37.179Z,50.6
2023-01-08T02:20:37.192Z,51
2023-01-08T02:22:37.183Z,51.1
2023-01-08T02:24:37.191Z,51
2023-01-08T02:25:37.179Z,51.2
2023-01-08T02:26:37.182Z,50.6
2023-01-08T02:27:37.175Z,50.5
2023-01-08T02:28:37.204Z,50.7
2023-01-08T02:29:37.210Z,50.7
2023-01-08T02:30:37.217Z,50.9
2023-01-08T02:31:37.188Z,50.8
2023-01-08T02:32:37.199Z,51.2
2023-01-08T02:33:37.194Z,51.3
2023-01-08T02:34:37.187Z,51.1
2023-01-08T02:35:37.184Z,51.4
2023-01-08T02:36:37.198Z,51
2023-01-08T02:37:37.179Z,50.9
2023-01-08T02:38:37.210Z,50.8
2023-01-08T02:39:37.185Z,51.6
2023-01-08T02:41:37.200Z,52.4
2023-01-08T02:42:37.191Z,53.1
2023-01-08T02:43:37.188Z,52.3
2023-01-08T02:44:37.182Z,52.6
2023-01-08T02:45:37.199Z,52.2
2023-01-08T02:46:37.310Z,52.7
2023-01-08T02:47:37.192Z,52.4
2023-01-08T02:48:37.186Z,52.3
2023-01-08T02:50:37.188Z,53
2023-01-08T02:51:37.187Z,52.7
2023-01-08T02:52:37.187Z,52.8
2023-01-08T02:53:37.179Z,52.3
2023-01-08T02:54:37.187Z,52
2023-01-08T02:55:37.207Z,51.5
2023-01-08T02:56:37.195Z,51.8
2023-01-08T02:57:37.194Z,52.1
2023-01-08T02:59:37.187Z,52.2
2023-01-08T03:00:37.187Z,52.1
2023-01-08T03:01:37.342Z,52.5
2023-01-08T03:02:37.198Z,52.6
2023-01-08T03:04:37.253Z,52.7
2023-01-08T03:05:37.179Z,52.5
2023-01-08T03:06:37.185Z,52.4
2023-01-08T03:07:37.189Z,52.6
2023-01-08T03:08:37.184Z,52.1
2023-01-08T03:09:37.213Z,52.3
2023-01-08T03:10:37.196Z,51.6
2023-01-08T03:11:37.203Z,51.8
2023-01-08T03:12:37.323Z,52.1
2023-01-08T03:13:37.193Z,51.8
2023-01-08T03:14:37.187Z,52
2023-01-08T03:15:37.195Z,52.4
2023-01-08T03:16:37.253Z,52.3
2023-01-08T03:17:37.189Z,52.7
2023-01-08T03:18:37.185Z,52.2
2023-01-08T03:19:37.190Z,52.4
2023-01-08T03:20:37.308Z,52.2
2023-01-08T03:21:37.192Z,51.8
2023-01-08T03:22:37.193Z,52
2023-01-08T03:23:37.199Z,51.8
2023-01-08T03:24:37.191Z,52.2
2023-01-08T03:25:37.189Z,52.4
2023-01-08T03:26:37.201Z,52
2023-01-08T03:27:37.193Z,52.4
2023-01-08T03:28:37.189Z,52.4
2023-01-08T03:29:37.190Z,52.5
2023-01-08T03:30:37.278Z,52.4
2023-01-08T03:31:37.190Z,52.5
2023-01-08T03:32:37.192Z,52.1
2023-01-08T03:33:37.189Z,51.8
2023-01-08T03:34:37.192Z,51.5
2023-01-08T03:35:37.198Z,51.6
2023-01-08T03:36:37.217Z,52.3
2023-01-08T03:37:37.191Z,52.4
2023-01-08T03:38:37.192Z,52.9
2023-01-08T03:39:37.195Z,52.8
2023-01-08T03:40:37.198Z,52.1
2023-01-08T03:41:37.213Z,52.4
2023-01-08T03:42:37.195Z,52.2
2023-01-08T03:43:37.194Z,51.9
2023-01-08T03:44:37.199Z,51.7
2023-01-08T03:47:37.196Z,52.1
2023-01-08T03:48:37.191Z,51.8
2023-01-08T03:49:37.186Z,52.4
2023-01-08T03:50:37.217Z,52.3
2023-01-08T03:51:37.314Z,52.2
2023-01-08T03:52:37.194Z,52.4
2023-01-08T03:53:37.197Z,52.1
2023-01-08T03:54:37.204Z,52.2
2023-01-08T03:55:37.197Z,52.8
2023-01-08T03:56:37.191Z,52.7
2023-01-08T03:57:37.198Z,53
2023-01-08T03:58:37.232Z,52.7
2023-01-08T03:59:37.190Z,52.4
2023-01-08T04:00:37.199Z,52.8
2023-01-08T04:01:37.299Z,53
2023-01-08T04:02:37.294Z,53
2023-01-08T04:03:37.193Z,52.6
2023-01-08T04:04:37.258Z,52.7
2023-01-08T04:05:37.199Z,52.1
2023-01-08T04:07:37.197Z,52.3
2023-01-08T04:08:37.192Z,52.6
2023-01-08T04:09:37.282Z,52.7
2023-01-08T04:10:37.207Z,51.9
2023-01-08T04:11:37.227Z,51.9
2023-01-08T04:12:37.199Z,51.8
2023-01-08T04:13:37.203Z,51.7
2023-01-08T04:14:37.202Z,51.9
2023-01-08T04:15:37.252Z,51.8
2023-01-08T04:16:37.199Z,52.3
2023-01-08T04:17:37.203Z,52.5
2023-01-08T04:18:37.213Z,52.7
2023-01-08T04:19:37.358Z,52.6
2023-01-08T04:20:37.196Z,52.7
2023-01-08T04:21:37.213Z,52.8
2023-01-08T04:22:37.267Z,52.9
2023-01-08T04:23:37.214Z,52.9
2023-01-08T04:25:37.216Z,52.3
2023-01-08T04:26:37.251Z,52.1
2023-01-08T04:27:37.202Z,53
2023-01-08T04:29:37.200Z,52.5
2023-01-08T04:30:37.203Z,52.4
2023-01-08T04:31:37.208Z,52
2023-01-08T04:32:37.208Z,52.1
2023-01-08T04:33:37.219Z,52
2023-01-08T04:35:37.208Z,51.8
2023-01-08T04:36:37.207Z,51.7
2023-01-08T04:37:37.207Z,51.6
2023-01-08T04:38:37.197Z,51.8
2023-01-08T04:39:37.207Z,51.5
2023-01-08T04:40:37.202Z,52.3
2023-01-08T04:42:37.213Z,52.1
2023-01-08T04:43:37.210Z,52.5
2023-01-08T04:44:37.203Z,52.2
2023-01-08T04:45:37.229Z,52.2
2023-01-08T04:46:37.330Z,51.6
2023-01-08T04:48:37.219Z,52.1
2023-01-08T04:49:37.227Z,52.2
2023-01-08T04:50:37.201Z,51.8
2023-01-08T04:51:37.208Z,51.8
2023-01-08T04:52:37.214Z,52
2023-01-08T04:53:37.343Z,52.3
2023-01-08T04:54:37.207Z,52.4
2023-01-08T04:55:39.613Z,52.2
2023-01-08T04:56:37.210Z,52.3
2023-01-08T04:57:37.215Z,52.6
2023-01-08T04:58:37.220Z,52.3
2023-01-08T05:00:37.206Z,52.5
2023-01-08T05:01:37.376Z,52.5
2023-01-08T05:03:37.205Z,52
2023-01-08T05:04:37.213Z,52
2023-01-08T05:05:37.205Z,52.1
2023-01-08T05:06:37.210Z,52.7
2023-01-08T05:07:37.229Z,52.5
2023-01-08T05:08:37.208Z,52.5
2023-01-08T05:09:37.228Z,52.4
2023-01-08T05:10:37.211Z,52.3
2023-01-08T05:11:37.252Z,52.7
2023-01-08T05:12:37.237Z,52.4
2023-01-08T05:13:37.218Z,53.1
2023-01-08T05:14:37.212Z,53.2
2023-01-08T05:15:37.286Z,53.2
2023-01-08T05:16:37.209Z,53
2023-01-08T05:17:37.231Z,52.6
2023-01-08T05:18:37.214Z,52.7
2023-01-08T05:19:38.411Z,52.8
2023-01-08T05:21:37.215Z,52.7
2023-01-08T05:22:37.217Z,52.3
2023-01-08T05:23:37.211Z,52
2023-01-08T05:24:37.336Z,52.8
2023-01-08T05:25:37.612Z,53
2023-01-08T05:26:37.232Z,52.6
2023-01-08T05:27:37.210Z,52.4
2023-01-08T05:28:37.223Z,52.6
2023-01-08T05:29:37.212Z,52.2
2023-01-08T05:30:37.212Z,52.1
2023-01-08T05:31:37.219Z,52.4
2023-01-08T05:32:37.211Z,52.4
2023-01-08T05:33:37.205Z,52.3
2023-01-08T05:34:37.219Z,52.4
2023-01-08T05:35:37.216Z,52.6
2023-01-08T05:36:37.208Z,53.1
2023-01-08T05:37:37.214Z,52.7
2023-01-08T05:38:37.211Z,52.7
2023-01-08T05:39:37.218Z,52.4
2023-01-08T05:40:37.206Z,51.8
2023-01-08T05:41:37.223Z,51.8
2023-01-08T05:42:37.234Z,52.4
2023-01-08T05:43:37.213Z,51.9
2023-01-08T05:44:37.239Z,51.8
2023-01-08T05:45:37.212Z,52.7
2023-01-08T05:46:37.271Z,52.7
2023-01-08T05:47:37.278Z,52.7
2023-01-08T05:48:37.226Z,53.1
2023-01-08T05:49:37.223Z,52.7
2023-01-08T05:50:37.216Z,52.3
2023-01-08T05:52:37.218Z,52.7
2023-01-08T05:53:37.212Z,52.7
2023-01-08T05:54:37.290Z,53
2023-01-08T05:55:37.269Z,52.4
2023-01-08T05:56:37.230Z,52.5
2023-01-08T05:57:37.221Z,52.1
2023-01-08T05:58:37.210Z,52.1
2023-01-08T05:59:37.210Z,52
2023-01-08T06:00:37.214Z,52.4
2023-01-08T06:01:37.274Z,52.7
2023-01-08T06:02:37.323Z,52.2
2023-01-08T06:03:37.215Z,52.4
2023-01-08T06:04:37.308Z,52.4
2023-01-08T06:05:37.222Z,52.2
2023-01-08T06:06:37.216Z,52.9
2023-01-08T06:07:37.220Z,52.7
2023-01-08T06:08:37.242Z,52.6
2023-01-08T06:09:37.209Z,52.2
2023-01-08T06:10:37.227Z,52.1
2023-01-08T06:11:37.216Z,52.4
2023-01-08T06:12:37.212Z,52.4
2023-01-08T06:13:37.227Z,52
2023-01-08T06:14:37.234Z,51.8
2023-01-08T06:15:37.290Z,52.1
2023-01-08T06:16:37.219Z,52.3
2023-01-08T06:17:37.232Z,52.3
2023-01-08T06:18:37.222Z,52.2
2023-01-08T06:19:37.289Z,51.8
2023-01-08T06:20:37.237Z,51.8
2023-01-08T06:21:37.219Z,51.7
2023-01-08T06:22:37.373Z,51.2
2023-01-08T06:23:37.227Z,51
2023-01-08T06:24:37.224Z,51.8
2023-01-08T06:25:37.223Z,51.6
2023-01-08T06:26:37.350Z,51.2
2023-01-08T06:28:37.231Z,51.1
2023-01-08T06:30:37.222Z,51.1
2023-01-08T06:31:37.280Z,50.7
2023-01-08T06:32:37.258Z,50.7
2023-01-08T06:33:37.220Z,50.8
2023-01-08T06:34:37.219Z,50.6
2023-01-08T06:35:37.224Z,50.4
2023-01-08T06:36:37.226Z,50.7
2023-01-08T06:37:37.223Z,50.9
2023-01-08T06:39:37.217Z,50.8
2023-01-08T06:41:37.227Z,50.9
2023-01-08T06:43:37.222Z,51.2
2023-01-08T06:44:37.224Z,51.8
2023-01-08T06:45:37.260Z,52.9
2023-01-08T06:46:37.279Z,52.7
2023-01-08T06:47:37.223Z,53
2023-01-08T06:48:37.227Z,53.1
2023-01-08T06:49:37.231Z,54.2
2023-01-08T06:50:37.237Z,53.8
2023-01-08T06:51:37.251Z,54.2
2023-01-08T06:52:37.227Z,54.9
2023-01-08T06:53:37.233Z,54.6
2023-01-08T06:54:37.228Z,54.5
2023-01-08T06:55:37.225Z,55.4
2023-01-08T06:56:52.276Z,55.5
2023-01-08T06:57:37.343Z,55.4
2023-01-08T06:58:37.225Z,55.5
2023-01-08T06:59:37.234Z,55.3
2023-01-08T07:00:37.234Z,54.9
2023-01-08T07:01:37.378Z,55.3
2023-01-08T07:02:37.365Z,55.3
2023-01-08T07:04:37.239Z,55.2
2023-01-08T07:05:37.233Z,54.9
2023-01-08T07:06:37.231Z,54.9
2023-01-08T07:07:37.241Z,54.5
2023-01-08T07:08:37.220Z,54.7
2023-01-08T07:09:37.224Z,54.3
2023-01-08T07:10:37.224Z,54.5
2023-01-08T07:11:37.225Z,54.3
2023-01-08T07:12:37.232Z,54
2023-01-08T07:13:37.223Z,54.2
2023-01-08T07:15:37.358Z,53.7
2023-01-08T07:16:37.242Z,53.9
2023-01-08T07:17:37.229Z,53.5
2023-01-08T07:18:37.230Z,53.6
2023-01-08T07:19:37.345Z,53.4
2023-01-08T07:20:37.225Z,53.4
2023-01-08T07:21:37.225Z,53.1
2023-01-08T07:22:37.229Z,53.4
2023-01-08T07:23:37.232Z,53.2
2023-01-08T07:24:37.232Z,52.9
2023-01-08T07:25:37.225Z,53
2023-01-08T07:26:37.246Z,53.1
2023-01-08T07:27:37.239Z,53
2023-01-08T07:28:37.400Z,52.9
2023-01-08T07:29:37.240Z,52.8
2023-01-08T07:30:37.231Z,52.9
2023-01-08T07:31:37.342Z,52.8
2023-01-08T07:32:37.235Z,52.7
2023-01-08T07:33:37.235Z,53.1
2023-01-08T07:34:37.230Z,52.8
2023-01-08T07:35:37.239Z,53.5
2023-01-08T07:36:37.233Z,53.8
2023-01-08T07:37:37.237Z,54.5
2023-01-08T07:38:37.228Z,54.2
2023-01-08T07:39:37.230Z,54.2
2023-01-08T07:40:39.256Z,53.9
2023-01-08T07:41:37.233Z,54
2023-01-08T07:42:37.231Z,53.5
2023-01-08T07:43:37.237Z,53.4
2023-01-08T07:44:37.241Z,53.9
2023-01-08T07:45:37.236Z,53.6
2023-01-08T07:46:37.435Z,53.6
2023-01-08T07:47:37.253Z,53.6
2023-01-08T07:48:37.304Z,53.9
2023-01-08T07:49:37.237Z,54
2023-01-08T07:50:37.247Z,54.2
2023-01-08T07:51:37.239Z,53.8
2023-01-08T07:52:37.246Z,53.6
2023-01-08T07:53:37.250Z,54.8
2023-01-08T07:54:37.243Z,55
2023-01-08T07:55:37.270Z,54.7
2023-01-08T07:56:37.232Z,55.1
2023-01-08T07:57:37.233Z,55
2023-01-08T07:59:37.361Z,55.6
2023-01-08T08:00:37.243Z,55.9
2023-01-08T08:03:37.354Z,55.6
2023-01-08T08:04:37.234Z,55.1
2023-01-08T08:05:37.237Z,55.3
2023-01-08T08:06:37.231Z,54.8
2023-01-08T08:07:37.234Z,54.9
2023-01-08T08:08:37.239Z,55
2023-01-08T08:09:37.238Z,55.1
2023-01-08T08:10:37.306Z,55.1
2023-01-08T08:11:37.236Z,55
2023-01-08T08:12:37.240Z,54.9
2023-01-08T08:13:37.247Z,55
2023-01-08T08:14:37.243Z,55.1
2023-01-08T08:16:37.248Z,54.5
2023-01-08T08:17:37.233Z,54.3
2023-01-08T08:18:37.316Z,54.3
2023-01-08T08:20:37.247Z,54.4
2023-01-08T08:21:37.248Z,54.5
2023-01-08T08:22:37.242Z,54.4
2023-01-08T08:23:37.251Z,54.7
2023-01-08T08:24:37.242Z,54.3
2023-01-08T08:25:37.263Z,54.1
2023-01-08T08:26:37.241Z,54.3
2023-01-08T08:27:37.234Z,54.4
2023-01-08T08:29:37.241Z,54.4
2023-01-08T08:30:37.365Z,53.9
2023-01-08T08:31:37.306Z,54.1
2023-01-08T08:32:37.240Z,54.4
2023-01-08T08:33:37.235Z,54.1
2023-01-08T08:34:37.246Z,54.2
2023-01-08T08:35:37.243Z,54.2
2023-01-08T08:36:37.237Z,54.1
2023-01-08T08:37:37.246Z,53.8
2023-01-08T08:38:37.236Z,53.5
2023-01-08T08:39:37.240Z,54.1
2023-01-08T08:41:37.262Z,54
2023-01-08T08:42:38.169Z,53.7
2023-01-08T08:43:37.239Z,53.3
2023-01-08T08:44:37.249Z,53.4
2023-01-08T08:45:37.323Z,53.5
2023-01-08T08:46:37.348Z,53.6
2023-01-08T08:47:37.234Z,53.2
2023-01-08T08:48:37.245Z,52.9
2023-01-08T08:49:37.247Z,52.9
2023-01-08T08:50:37.272Z,52.6
2023-01-08T08:51:37.239Z,52.7
2023-01-08T08:52:37.240Z,52.6
2023-01-08T08:53:37.243Z,52.6
2023-01-08T08:54:37.239Z,53.1
2023-01-08T08:55:37.241Z,52.5
2023-01-08T08:56:37.248Z,52.4
2023-01-08T08:57:37.245Z,52.1
2023-01-08T08:58:37.241Z,52.1
2023-01-08T08:59:37.241Z,51.8
2023-01-08T09:00:37.261Z,52.1
2023-01-08T09:01:37.450Z,52.1
2023-01-08T09:02:37.488Z,52.1
2023-01-08T09:03:37.346Z,52.4
2023-01-08T09:04:37.252Z,52.3
2023-01-08T09:05:37.246Z,52.4
2023-01-08T09:06:37.240Z,52.5
2023-01-08T09:07:37.243Z,52.5
2023-01-08T09:08:37.235Z,52
2023-01-08T09:11:37.256Z,52.9
2023-01-08T09:12:37.241Z,52.3
2023-01-08T09:13:37.249Z,51.9
2023-01-08T09:14:37.268Z,52
2023-01-08T09:15:37.276Z,52.2
2023-01-08T09:16:37.365Z,52.1
2023-01-08T09:17:37.242Z,52.4
2023-01-08T09:18:37.245Z,52.9
2023-01-08T09:19:37.250Z,52
2023-01-08T09:20:37.317Z,52
2023-01-08T09:21:37.255Z,51.8
2023-01-08T09:22:37.246Z,51.8
2023-01-08T09:23:37.252Z,52.5
2023-01-08T09:24:37.242Z,52.2
2023-01-08T09:25:37.257Z,52.6
2023-01-08T09:26:37.262Z,51.4
2023-01-08T09:27:37.240Z,51.7
2023-01-08T09:28:37.256Z,51.5
2023-01-08T09:29:37.254Z,51.6
2023-01-08T09:30:37.243Z,51.4
2023-01-08T09:31:37.308Z,51.6
2023-01-08T09:32:37.365Z,51.3
2023-01-08T09:33:37.251Z,51.5
2023-01-08T09:34:37.245Z,51.4
2023-01-08T09:35:37.248Z,51.8
2023-01-08T09:36:37.242Z,51.5
2023-01-08T09:37:37.256Z,51.5
2023-01-08T09:38:37.241Z,51
2023-01-08T09:39:37.242Z,50.8
2023-01-08T09:40:37.250Z,50.8
2023-01-08T09:41:37.253Z,51.2
2023-01-08T09:44:37.263Z,50.7
2023-01-08T09:45:37.256Z,51
2023-01-08T09:46:37.337Z,51
2023-01-08T09:47:37.254Z,50.9
2023-01-08T09:48:37.263Z,50.7
2023-01-08T09:49:37.255Z,51
2023-01-08T09:50:37.245Z,51.1
2023-01-08T09:51:37.253Z,50.8
2023-01-08T09:53:37.277Z,50.7
2023-01-08T09:54:37.266Z,51.1
2023-01-08T09:56:37.255Z,50.9
2023-01-08T09:57:37.254Z,50.6
2023-01-08T09:58:37.259Z,50.5
2023-01-08T09:59:37.262Z,51.1
2023-01-08T10:00:37.348Z,51
2023-01-08T10:01:37.372Z,50.4
2023-01-08T10:02:37.404Z,50.8
2023-01-08T10:03:37.270Z,50.7
2023-01-08T10:04:37.255Z,50.6
2023-01-08T10:05:37.249Z,50.1
2023-01-08T10:06:37.244Z,50.9
2023-01-08T10:07:37.255Z,51.3
2023-01-08T10:08:37.265Z,51
2023-01-08T10:09:37.256Z,50.5
2023-01-08T10:10:37.247Z,50.3
2023-01-08T10:12:37.265Z,50.7
2023-01-08T10:13:37.284Z,50.1
2023-01-08T10:14:37.262Z,50
2023-01-08T10:15:37.260Z,50
2023-01-08T10:17:37.267Z,50.3
2023-01-08T10:18:37.252Z,50.2
2023-01-08T10:19:37.262Z,50.1
2023-01-08T10:20:37.255Z,50.1
2023-01-08T10:21:37.262Z,49.9
2023-01-08T10:22:37.254Z,49.9
2023-01-08T10:23:37.273Z,50.1
2023-01-08T10:24:37.283Z,50.2
2023-01-08T10:25:37.275Z,49.4
2023-01-08T10:26:37.257Z,49.7
2023-01-08T10:27:37.263Z,50
2023-01-08T10:28:37.271Z,49.6
2023-01-08T10:29:37.265Z,49.2
2023-01-08T10:30:37.281Z,49.4
2023-01-08T10:33:37.261Z,49.5
2023-01-08T10:34:37.283Z,49.4
2023-01-08T10:36:37.258Z,48.3
2023-01-08T10:37:37.258Z,48.5
2023-01-08T10:38:37.255Z,48.9
2023-01-08T10:39:37.248Z,48.7
2023-01-08T10:40:37.255Z,48.9
2023-01-08T10:41:37.254Z,48.8
2023-01-08T10:43:37.259Z,48.3
2023-01-08T10:44:37.271Z,47.9
2023-01-08T10:45:37.342Z,47.8
2023-01-08T10:46:37.265Z,47.9
2023-01-08T10:47:37.254Z,48.1
2023-01-08T10:49:37.257Z,48.2
2023-01-08T10:50:37.261Z,48.2
2023-01-08T10:51:37.273Z,48
2023-01-08T10:52:37.263Z,47.7
2023-01-08T10:54:37.308Z,47.4
2023-01-08T10:55:37.273Z,47.2
2023-01-08T10:56:37.258Z,46.9
2023-01-08T10:57:37.262Z,47
2023-01-08T10:58:37.259Z,47
2023-01-08T10:59:37.291Z,47.2
2023-01-08T11:00:37.343Z,46.4
2023-01-08T11:01:37.405Z,46.7
2023-01-08T11:02:38.815Z,47.1
2023-01-08T11:03:37.264Z,47.1
2023-01-08T11:04:37.266Z,47.3
2023-01-08T11:05:37.279Z,46.6
2023-01-08T11:06:37.254Z,46.6
2023-01-08T11:07:37.265Z,46.8
2023-01-08T11:08:37.268Z,46.6
2023-01-08T11:09:37.260Z,46.4
2023-01-08T11:10:37.267Z,47
2023-01-08T11:11:37.261Z,47
2023-01-08T11:12:37.271Z,46.5
2023-01-08T11:13:37.261Z,46
2023-01-08T11:15:37.258Z,46.5
2023-01-08T11:16:37.312Z,46.7
2023-01-08T11:17:37.324Z,46.1
2023-01-08T11:18:37.267Z,46.4
2023-01-08T11:19:37.267Z,47
2023-01-08T11:20:37.270Z,47
2023-01-08T11:21:37.269Z,46.3
2023-01-08T11:22:37.258Z,46.5
2023-01-08T11:23:37.285Z,46.5
2023-01-08T11:24:37.286Z,46.8
2023-01-08T11:26:37.270Z,46.3
2023-01-08T11:27:37.267Z,46.7
2023-01-08T11:28:37.260Z,46.4
2023-01-08T11:29:37.268Z,46.6
2023-01-08T11:30:37.263Z,46.6
2023-01-08T11:31:37.310Z,46.3
2023-01-08T11:32:37.276Z,46.6
2023-01-08T11:33:37.287Z,46.3
2023-01-08T11:34:37.270Z,46.8
2023-01-08T11:35:37.264Z,46.7
2023-01-08T11:36:37.296Z,46.9
2023-01-08T11:37:37.263Z,47
2023-01-08T11:38:37.268Z,47.2
2023-01-08T11:39:37.262Z,47.1
2023-01-08T11:41:37.262Z,46.8
2023-01-08T11:42:37.276Z,46.9
2023-01-08T11:43:37.264Z,46.5
2023-01-08T11:44:37.273Z,46.9
2023-01-08T11:45:37.285Z,46.7
2023-01-08T11:47:37.269Z,46.8
2023-01-08T11:48:37.278Z,47.1
2023-01-08T11:49:37.274Z,47
2023-01-08T11:50:37.264Z,46.7
2023-01-08T11:51:37.277Z,46.8
2023-01-08T11:52:37.325Z,46.6
2023-01-08T11:53:37.275Z,46.3
2023-01-08T11:54:37.266Z,46.1
2023-01-08T11:55:37.276Z,46.7
2023-01-08T11:56:37.270Z,46.8
2023-01-08T11:57:37.269Z,46.6
2023-01-08T11:58:37.272Z,47.2
2023-01-08T11:59:37.265Z,47.4
2023-01-08T12:00:37.272Z,47.4
2023-01-08T12:01:37.337Z,47.7
2023-01-08T12:03:37.422Z,47.9
2023-01-08T12:04:37.314Z,48.5
2023-01-08T12:05:37.266Z,48.8
2023-01-08T12:06:37.269Z,49.3
2023-01-08T12:08:37.275Z,49.7
2023-01-08T12:09:37.294Z,49.4
2023-01-08T12:10:37.273Z,49.6
2023-01-08T12:11:37.271Z,49.9
2023-01-08T12:13:37.275Z,49.9
2023-01-08T12:14:37.277Z,50.4
2023-01-08T12:15:37.272Z,50.7
2023-01-08T12:16:37.376Z,51
2023-01-08T12:17:37.286Z,51.1
2023-01-08T12:18:37.267Z,51
2023-01-08T12:19:37.271Z,51.4
2023-01-08T12:20:37.272Z,51.5
2023-01-08T12:21:37.274Z,52.2
2023-01-08T12:22:37.281Z,52.4
2023-01-08T12:23:37.278Z,53
2023-01-08T12:24:37.274Z,53.6
2023-01-08T12:25:37.270Z,53.6
2023-01-08T12:26:37.274Z,54.4
2023-01-08T12:27:55.891Z,55.7
2023-01-08T12:29:37.280Z,51.8
2023-01-08T12:31:37.382Z,53.6
2023-01-08T12:32:37.276Z,52.4
2023-01-08T12:33:37.278Z,53.6
2023-01-08T12:34:37.280Z,54
2023-01-08T12:35:37.278Z,53.9
2023-01-08T12:36:37.277Z,54.6
2023-01-08T12:37:37.277Z,54.2
2023-01-08T12:38:37.324Z,55.6
2023-01-08T12:39:37.294Z,54.2
2023-01-08T12:40:37.285Z,54.2
2023-01-08T12:41:37.275Z,54.3
2023-01-08T12:43:37.275Z,53.6
2023-01-08T12:44:37.300Z,53.5
2023-01-08T12:45:37.331Z,53.1
2023-01-08T12:46:37.278Z,53.4
2023-01-08T12:47:37.274Z,52.6
2023-01-08T12:48:37.696Z,52.8
2023-01-08T12:50:37.277Z,53.8
2023-01-08T12:51:37.285Z,53.2
2023-01-08T12:52:37.289Z,53.4
2023-01-08T12:53:37.277Z,53.8
2023-01-08T12:54:37.268Z,53.1
2023-01-08T12:55:37.288Z,53.3
2023-01-08T12:56:37.280Z,54
2023-01-08T12:57:37.286Z,53.3
2023-01-08T12:58:37.293Z,53.7
2023-01-08T12:59:37.280Z,54.2
2023-01-08T13:00:37.273Z,54
2023-01-08T13:01:37.369Z,53.8
2023-01-08T13:02:37.481Z,52.9
2023-01-08T13:03:37.281Z,54.8
2023-01-08T13:05:37.277Z,54.2
2023-01-08T13:06:37.279Z,54.2
2023-01-08T13:07:37.285Z,54.1
2023-01-08T13:08:37.294Z,54.3
2023-01-08T13:09:37.327Z,53
2023-01-08T13:10:37.288Z,53.5
2023-01-08T13:11:37.281Z,53.5
2023-01-08T13:12:37.293Z,53.1
2023-01-08T13:13:37.305Z,52.8
2023-01-08T13:14:37.278Z,53.1
2023-01-08T13:15:37.278Z,52.8
2023-01-08T13:16:37.327Z,53.2
2023-01-08T13:17:37.278Z,53
2023-01-08T13:18:37.280Z,52.4
2023-01-08T13:19:37.290Z,53
2023-01-08T13:21:37.293Z,53
2023-01-08T13:22:37.286Z,52.8
2023-01-08T13:23:37.316Z,52.2
2023-01-08T13:24:37.277Z,52.6
2023-01-08T13:25:37.293Z,52.6
2023-01-08T13:26:37.290Z,51.8
2023-01-08T13:27:37.284Z,52.2
2023-01-08T13:28:37.304Z,52
2023-01-08T13:30:37.279Z,52.2
2023-01-08T13:31:37.333Z,51.8
2023-01-08T13:32:37.289Z,52.3
2023-01-08T13:33:37.288Z,52.5
2023-01-08T13:34:37.280Z,51.9
2023-01-08T13:35:39.062Z,51.8
2023-01-08T13:36:37.282Z,51.7
2023-01-08T13:37:37.316Z,51.6
2023-01-08T13:38:37.285Z,51.9
2023-01-08T13:39:37.288Z,52.8
2023-01-08T13:40:37.376Z,51.6
2023-01-08T13:41:37.325Z,50.5
2023-01-08T13:43:37.284Z,51.3
2023-01-08T13:44:37.291Z,51.2
2023-01-08T13:46:37.284Z,50.5
2023-01-08T13:47:37.306Z,51.1
2023-01-08T13:48:37.290Z,51
2023-01-08T13:49:37.288Z,51.4
2023-01-08T13:50:37.293Z,50.8
2023-01-08T13:51:37.286Z,50.8
2023-01-08T13:52:37.285Z,50.8
2023-01-08T13:53:37.288Z,50.7
2023-01-08T13:54:37.297Z,50.9
2023-01-08T13:55:37.294Z,50.2
2023-01-08T13:56:37.287Z,50.9
2023-01-08T13:57:37.288Z,50.8
2023-01-08T13:58:37.291Z,50.6
2023-01-08T13:59:37.281Z,50.5
2023-01-08T14:00:37.285Z,50.6
2023-01-08T14:01:37.386Z,50.6
2023-01-08T14:02:37.382Z,50.2
2023-01-08T14:03:37.301Z,50.4
2023-01-08T14:04:37.310Z,50.9
2023-01-08T14:05:37.327Z,50.5
2023-01-08T14:06:37.301Z,50.3
2023-01-08T14:07:37.295Z,50.2
2023-01-08T14:08:37.290Z,50
2023-01-08T14:09:37.306Z,50.2
2023-01-08T14:10:37.285Z,50.2
2023-01-08T14:11:37.317Z,50
2023-01-08T14:12:37.286Z,50.5
2023-01-08T14:13:37.301Z,50.5
2023-01-08T14:14:37.298Z,50.5
2023-01-08T14:15:37.292Z,50.4
2023-01-08T14:16:37.429Z,50.1
2023-01-08T14:17:37.297Z,50.4
2023-01-08T14:18:37.290Z,50
2023-01-08T14:19:37.311Z,49.6
2023-01-08T14:20:37.293Z,49.9
2023-01-08T14:21:37.291Z,50.2
2023-01-08T14:22:37.292Z,49.8
2023-01-08T14:23:37.315Z,49.6
2023-01-08T14:24:37.303Z,49.3
2023-01-08T14:25:37.296Z,49.4
2023-01-08T14:26:37.295Z,49.5
2023-01-08T14:27:37.295Z,49.5
2023-01-08T14:28:37.296Z,49.1
2023-01-08T14:29:37.291Z,48.9
2023-01-08T14:30:37.289Z,49
2023-01-08T14:31:37.296Z,48.7
2023-01-08T14:32:37.299Z,49.1
2023-01-08T14:33:37.288Z,49.2
2023-01-08T14:34:37.293Z,50
2023-01-08T14:35:37.341Z,49.3
2023-01-08T14:36:37.295Z,49.2